createdAt,value
2022-09-05T00:02:02.957Z,21.74
2022-09-05T00:04:56.633Z,21.74
2022-09-05T00:07:58.251Z,21.72
2022-09-05T00:11:39.680Z,21.71
2022-09-05T00:14:03.317Z,21.71
2022-09-05T00:16:44.719Z,21.68
2022-09-05T00:24:23.449Z,21.67
2022-09-05T00:24:30.630Z,21.62
2022-09-05T00:25:31.860Z,21.61
2022-09-05T00:28:26.858Z,21.58
2022-09-05T00:31:54.174Z,21.53
2022-09-05T00:34:07.851Z,21.49
2022-09-05T00:36:56.169Z,21.45
2022-09-05T00:39:29.243Z,21.43
2022-09-05T00:41:59.822Z,21.40
2022-09-05T00:44:31.283Z,21.39
2022-09-05T00:47:16.982Z,21.40
2022-09-05T00:49:49.776Z,21.38
2022-09-05T00:52:37.011Z,21.34
2022-09-05T00:55:20.327Z,21.36
2022-09-05T00:57:55.930Z,21.35
2022-09-05T01:00:33.813Z,21.33
2022-09-05T01:03:25.360Z,21.30
2022-09-05T01:06:15.258Z,21.26
2022-09-05T01:09:10.051Z,21.23
2022-09-05T01:11:44.556Z,21.22
2022-09-05T01:14:30.050Z,21.19
2022-09-05T01:17:18.816Z,21.16
2022-09-05T01:20:19.081Z,21.13
2022-09-05T01:23:15.557Z,21.11
2022-09-05T01:26:22.048Z,21.08
2022-09-05T01:29:20.034Z,21.07
2022-09-05T01:32:03.515Z,21.05
2022-09-05T01:34:42.167Z,21.03
2022-09-05T01:37:34.328Z,21.02
2022-09-05T01:40:14.729Z,21.01
2022-09-05T01:43:10.434Z,20.97
2022-09-05T01:46:00.678Z,20.95
2022-09-05T01:48:47.567Z,20.90
2022-09-05T01:51:32.144Z,20.89
2022-09-05T01:54:21.183Z,20.87
2022-09-05T01:57:19.554Z,20.84
2022-09-05T02:00:01.224Z,20.83
2022-09-05T02:02:38.406Z,20.80
2022-09-05T02:05:11.591Z,20.79
2022-09-05T02:08:11.483Z,20.76
2022-09-05T02:11:09.492Z,20.74
2022-09-05T02:13:36.268Z,20.72
2022-09-05T02:16:23.358Z,20.69
2022-09-05T02:19:16.798Z,20.69
2022-09-05T02:21:56.278Z,20.66
2022-09-05T02:24:33.225Z,20.65
2022-09-05T02:27:09.132Z,20.64
2022-09-05T02:30:00.483Z,20.65
2022-09-05T02:32:32.898Z,20.61
2022-09-05T02:35:26.982Z,20.60
2022-09-05T02:43:35.354Z,20.58
2022-09-05T02:45:18.370Z,20.59
2022-09-05T02:45:23.911Z,20.56
2022-09-05T02:48:15.128Z,20.52
2022-09-05T02:57:25.163Z,20.53
2022-09-05T02:57:34.734Z,20.49
2022-09-05T02:57:43.080Z,20.47
2022-09-05T03:00:11.987Z,20.47
2022-09-05T03:03:00.923Z,20.46
2022-09-05T03:05:52.749Z,20.45
2022-09-05T03:08:27.106Z,20.45
2022-09-05T03:11:16.065Z,20.44
2022-09-05T03:14:07.636Z,20.43
2022-09-05T03:16:56.183Z,20.40
2022-09-05T03:20:00.611Z,20.41
2022-09-05T03:23:08.452Z,20.39
2022-09-05T03:25:58.065Z,20.36
2022-09-05T03:28:40.094Z,20.34
2022-09-05T03:31:22.948Z,20.34
2022-09-05T03:34:09.643Z,20.33
2022-09-05T03:36:39.487Z,20.30
2022-09-05T03:39:21.740Z,20.29
2022-09-05T03:42:33.347Z,20.28
2022-09-05T03:45:37.851Z,20.26
2022-09-05T03:48:38.948Z,20.23
2022-09-05T03:57:10.323Z,20.22
2022-09-05T03:57:26.662Z,20.20
2022-09-05T03:58:05.841Z,20.17
2022-09-05T04:01:10.992Z,20.18
2022-09-05T04:08:15.459Z,20.16
2022-09-05T04:08:19.247Z,20.15
2022-09-05T04:09:59.289Z,20.17
2022-09-05T04:12:48.685Z,20.15
2022-09-05T04:15:34.821Z,20.15
2022-09-05T04:18:25.734Z,20.14
2022-09-05T04:21:28.036Z,20.15
2022-09-05T04:24:17.997Z,20.14
2022-09-05T04:26:54.546Z,20.12
2022-09-05T04:29:48.221Z,20.12
2022-09-05T04:32:38.982Z,20.10
2022-09-05T04:35:47.677Z,20.08
2022-09-05T04:38:17.039Z,20.07
2022-09-05T04:41:08.213Z,20.07
2022-09-05T04:43:53.799Z,20.05
2022-09-05T04:46:23.533Z,20.02
2022-09-05T04:49:16.474Z,20.01
2022-09-05T04:51:43.904Z,20.12
2022-09-05T04:54:30.358Z,20.11
2022-09-05T04:57:24.292Z,20.03
2022-09-05T05:05:58.697Z,20.03
2022-09-05T05:06:17.746Z,20.02
2022-09-05T05:06:30.074Z,20.01
2022-09-05T05:09:12.706Z,19.98
2022-09-05T05:17:54.143Z,19.96
2022-09-05T05:18:12.193Z,19.93
2022-09-05T05:18:14.835Z,19.94
2022-09-05T05:20:56.526Z,19.93
2022-09-05T05:23:39.718Z,19.97
2022-09-05T05:26:28.080Z,19.97
2022-09-05T05:28:59.571Z,19.90
2022-09-05T05:31:31.597Z,19.90
2022-09-05T05:34:02.202Z,19.91
2022-09-05T05:36:37.757Z,19.90
2022-09-05T05:39:06.411Z,19.91
2022-09-05T05:41:38.993Z,19.90
2022-09-05T05:44:18.282Z,19.91
2022-09-05T05:46:59.292Z,19.90
2022-09-05T05:49:57.541Z,19.89
2022-09-05T05:53:01.252Z,19.90
2022-09-05T05:56:03.191Z,19.89
2022-09-05T05:59:01.173Z,19.86
2022-09-05T06:01:38.743Z,19.88
2022-09-05T06:04:34.002Z,19.85
2022-09-05T06:07:50.970Z,19.85
2022-09-05T06:14:49.121Z,19.85
2022-09-05T06:15:07.078Z,19.86
2022-09-05T06:17:28.129Z,19.92
2022-09-05T06:22:08.806Z,19.98
2022-09-05T06:23:47.278Z,19.99
2022-09-05T06:26:30.537Z,20.01
2022-09-05T06:29:18.819Z,20.06
2022-09-05T06:31:54.701Z,20.13
2022-09-05T06:34:35.697Z,20.17
2022-09-05T06:37:13.984Z,20.22
2022-09-05T06:40:05.747Z,20.26
2022-09-05T06:42:54.767Z,20.30
2022-09-05T06:46:00.970Z,20.34
2022-09-05T06:48:45.978Z,20.41
2022-09-05T06:51:45.015Z,20.48
2022-09-05T06:54:38.633Z,20.53
2022-09-05T06:57:40.003Z,20.61
2022-09-05T07:00:25.053Z,20.65
2022-09-05T07:03:25.556Z,20.73
2022-09-05T07:06:08.986Z,20.81
2022-09-05T07:08:53.976Z,20.85
2022-09-05T07:11:52.527Z,20.91
2022-09-05T07:14:24.311Z,20.97
2022-09-05T07:17:05.694Z,21.04
2022-09-05T07:19:44.401Z,21.12
2022-09-05T07:22:48.613Z,21.18
2022-09-05T07:25:19.990Z,21.22
2022-09-05T07:28:27.008Z,21.32
2022-09-05T07:30:52.323Z,21.37
2022-09-05T07:33:22.016Z,21.41
2022-09-05T07:35:50.759Z,21.45
2022-09-05T07:38:26.694Z,21.49
2022-09-05T07:41:18.768Z,21.59
2022-09-05T07:43:46.933Z,21.67
2022-09-05T07:46:23.772Z,21.74
2022-09-05T07:48:55.987Z,21.83
2022-09-05T07:56:46.835Z,21.94
2022-09-05T07:56:54.033Z,22.05
2022-09-05T07:57:50.659Z,22.15
2022-09-05T08:00:26.412Z,22.24
2022-09-05T08:03:00.872Z,22.33
2022-09-05T08:05:35.852Z,22.37
2022-09-05T08:08:08.526Z,22.44
2022-09-05T08:11:22.423Z,22.42
2022-09-05T08:14:03.704Z,22.45
2022-09-05T08:16:43.106Z,22.50
2022-09-05T08:19:28.839Z,22.57
2022-09-05T08:21:57.619Z,22.60
2022-09-05T08:24:41.706Z,22.62
2022-09-05T08:27:16.167Z,22.67
2022-09-05T08:29:46.887Z,22.71
2022-09-05T08:32:40.343Z,22.71
2022-09-05T08:35:22.049Z,22.75
2022-09-05T08:37:50.252Z,22.80
2022-09-05T08:40:39.178Z,22.81
2022-09-05T08:45:01.125Z,22.81
2022-09-05T08:46:40.997Z,22.83
2022-09-05T08:49:44.026Z,22.82
2022-09-05T08:52:28.042Z,22.77
2022-09-05T08:55:15.793Z,22.72
2022-09-05T08:58:03.855Z,22.66
2022-09-05T09:01:04.571Z,22.61
2022-09-05T09:03:59.686Z,22.57
2022-09-05T09:07:09.490Z,22.55
2022-09-05T09:09:42.294Z,22.55
2022-09-05T09:12:18.328Z,22.56
2022-09-05T09:15:00.728Z,22.54
2022-09-05T09:17:45.278Z,22.63
2022-09-05T09:20:12.043Z,22.63
2022-09-05T09:22:59.475Z,22.67
2022-09-05T09:25:44.249Z,22.68
2022-09-05T09:28:47.834Z,22.73
2022-09-05T09:31:36.025Z,22.76
2022-09-05T09:34:14.014Z,22.87
2022-09-05T09:37:14.826Z,22.94
2022-09-05T09:40:16.228Z,23.08
2022-09-05T09:42:53.894Z,23.21
2022-09-05T09:45:28.196Z,23.29
2022-09-05T09:48:09.752Z,23.39
2022-09-05T09:51:13.639Z,23.46
2022-09-05T09:54:05.801Z,23.58
2022-09-05T09:56:44.788Z,23.75
2022-09-05T09:59:24.421Z,23.90
2022-09-05T10:04:01.281Z,24.00
2022-09-05T10:10:52.609Z,24.43
2022-09-05T10:11:09.180Z,24.19
2022-09-05T10:12:04.137Z,24.49
2022-09-05T10:14:49.911Z,24.52
2022-09-05T10:17:36.763Z,24.58
2022-09-05T10:20:35.949Z,24.63
2022-09-05T10:23:45.314Z,24.70
2022-09-05T10:26:27.527Z,24.77
2022-09-05T10:29:34.061Z,24.76
2022-09-05T10:35:10.679Z,24.87
2022-09-05T10:35:22.619Z,25.03
2022-09-05T10:38:06.358Z,25.25
2022-09-05T10:41:20.005Z,25.39
2022-09-05T10:43:30.046Z,25.62
2022-09-05T10:46:06.076Z,25.71
2022-09-05T10:48:53.574Z,25.89
2022-09-05T10:51:31.483Z,26.06
2022-09-05T10:54:29.595Z,26.19
2022-09-05T10:57:01.496Z,26.29
2022-09-05T11:01:38.940Z,26.42
2022-09-05T11:02:39.672Z,26.61
2022-09-05T11:05:26.644Z,26.78
2022-09-05T11:08:13.840Z,26.98
2022-09-05T11:10:55.248Z,27.15
2022-09-05T11:13:37.221Z,27.29
2022-09-05T11:16:22.724Z,27.45
2022-09-05T11:18:59.155Z,27.58
2022-09-05T11:22:22.210Z,27.68
2022-09-05T11:25:14.072Z,27.81
2022-09-05T11:27:51.502Z,27.97
2022-09-05T11:30:30.197Z,28.08
2022-09-05T11:39:42.499Z,28.20
2022-09-05T11:39:51.368Z,28.32
2022-09-05T11:40:03.913Z,28.44
2022-09-05T11:42:11.137Z,28.59
2022-09-05T11:44:56.817Z,28.66
2022-09-05T11:47:47.132Z,28.77
2022-09-05T11:50:16.927Z,28.90
2022-09-05T11:53:02.169Z,29.02
2022-09-05T11:55:34.794Z,29.04
2022-09-05T11:58:44.021Z,29.19
2022-09-05T12:04:17.010Z,29.30
2022-09-05T12:07:27.108Z,29.33
2022-09-05T12:10:46.220Z,29.38
2022-09-05T12:13:32.233Z,29.49
2022-09-05T12:16:08.644Z,29.61
2022-09-05T12:18:51.354Z,29.70
2022-09-05T12:21:38.237Z,29.80
2022-09-05T12:25:24.545Z,29.91
2022-09-05T12:27:44.234Z,29.90
2022-09-05T12:30:14.097Z,29.97
2022-09-05T12:40:48.263Z,30.11
2022-09-05T12:40:56.154Z,30.10
2022-09-05T12:41:42.126Z,29.99
2022-09-05T12:41:43.260Z,29.16
2022-09-05T12:44:40.285Z,30.19
2022-09-05T12:46:04.755Z,30.24
2022-09-05T12:48:50.958Z,30.32
2022-09-05T12:51:46.924Z,30.42
2022-09-05T12:54:33.817Z,30.39
2022-09-05T13:02:55.129Z,30.55
2022-09-05T13:03:06.312Z,30.57
2022-09-05T13:03:35.687Z,30.66
2022-09-05T13:06:09.641Z,30.75
2022-09-05T13:08:59.461Z,30.71
2022-09-05T13:14:52.428Z,30.96
2022-09-05T13:14:52.527Z,30.77
2022-09-05T13:17:16.565Z,31.04
2022-09-05T13:19:51.741Z,31.07
2022-09-05T13:22:22.625Z,31.17
2022-09-05T13:24:57.722Z,31.15
2022-09-05T13:27:28.083Z,31.17
2022-09-05T13:31:33.305Z,31.19
2022-09-05T13:37:58.026Z,31.36
2022-09-05T13:38:10.812Z,31.27
2022-09-05T13:38:48.630Z,31.47
2022-09-05T13:41:27.740Z,31.45
2022-09-05T13:44:27.572Z,31.51
2022-09-05T13:46:59.149Z,31.52
2022-09-05T13:49:56.846Z,31.48
2022-09-05T13:53:15.231Z,31.41
2022-09-05T13:55:53.929Z,31.36
2022-09-05T13:58:30.306Z,31.38
2022-09-05T14:01:23.287Z,31.43
2022-09-05T14:07:46.598Z,31.43
2022-09-05T14:10:26.045Z,31.41
2022-09-05T14:13:02.752Z,31.39
2022-09-05T14:15:52.903Z,31.36
2022-09-05T14:18:23.442Z,31.40
2022-09-05T14:21:16.598Z,31.48
2022-09-05T14:24:04.661Z,31.47
2022-09-05T14:26:40.644Z,31.54
2022-09-05T14:29:13.981Z,31.51
2022-09-05T14:37:46.431Z,31.48
2022-09-05T14:37:50.570Z,31.35
2022-09-05T14:38:09.590Z,31.39
2022-09-05T14:40:53.402Z,31.45
2022-09-05T14:43:32.145Z,31.52
2022-09-05T14:46:29.362Z,31.59
2022-09-05T14:49:34.521Z,31.69
2022-09-05T14:52:23.724Z,31.79
2022-09-05T15:02:43.423Z,31.83
2022-09-05T15:02:53.849Z,31.77
2022-09-05T15:06:35.407Z,31.81
2022-09-05T15:12:16.941Z,31.86
2022-09-05T15:12:23.643Z,31.92
2022-09-05T15:14:41.559Z,31.91
2022-09-05T15:17:08.498Z,31.96
2022-09-05T15:19:53.271Z,31.96
2022-09-05T15:22:41.606Z,31.89
2022-09-05T15:25:23.542Z,31.90
2022-09-05T15:27:50.966Z,31.91
2022-09-05T15:30:34.730Z,31.87
2022-09-05T15:33:26.809Z,31.76
2022-09-05T15:35:54.631Z,31.72
2022-09-05T15:38:23.169Z,31.68
2022-09-05T15:41:11.542Z,31.58
2022-09-05T15:43:51.392Z,31.49
2022-09-05T15:46:29.451Z,31.50
2022-09-05T15:49:03.974Z,31.50
2022-09-05T15:51:50.220Z,31.43
2022-09-05T15:54:39.453Z,31.41
2022-09-05T15:57:17.415Z,31.34
2022-09-05T15:59:48.942Z,31.25
2022-09-05T16:02:28.400Z,31.20
2022-09-05T16:10:29.800Z,31.18
2022-09-05T16:10:42.376Z,31.15
2022-09-05T16:11:46.141Z,31.13
2022-09-05T16:14:09.802Z,31.06
2022-09-05T16:16:40.570Z,30.98
2022-09-05T16:23:18.148Z,30.93
2022-09-05T16:23:25.120Z,30.80
2022-09-05T16:25:34.536Z,30.77
2022-09-05T16:28:06.546Z,30.74
2022-09-05T16:30:37.720Z,30.71
2022-09-05T16:33:20.281Z,30.59
2022-09-05T16:35:51.528Z,30.52
2022-09-05T16:38:49.534Z,30.52
2022-09-05T16:41:51.047Z,30.46
2022-09-05T16:44:36.453Z,30.42
2022-09-05T16:47:27.145Z,30.36
2022-09-05T16:50:00.238Z,30.30
2022-09-05T16:52:35.733Z,30.23
2022-09-05T16:55:29.242Z,30.20
2022-09-05T16:58:00.650Z,30.13
2022-09-05T17:00:41.117Z,30.07
2022-09-05T17:03:28.415Z,30.03
2022-09-05T17:06:26.627Z,29.93
2022-09-05T17:08:58.178Z,29.89
2022-09-05T17:11:59.831Z,29.83
2022-09-05T17:14:34.156Z,29.73
2022-09-05T17:18:19.103Z,29.67
2022-09-05T17:20:16.147Z,29.58
2022-09-05T17:29:15.790Z,29.52
2022-09-05T17:29:33.147Z,29.44
2022-09-05T17:29:49.900Z,29.32
2022-09-05T17:31:59.849Z,29.18
2022-09-05T17:35:16.830Z,29.00
2022-09-05T17:38:02.952Z,28.85
2022-09-05T17:40:55.262Z,28.72
2022-09-05T17:43:28.781Z,28.55
2022-09-05T17:46:17.469Z,28.42
2022-09-05T17:48:57.287Z,28.26
2022-09-05T17:51:34.406Z,28.08
2022-09-05T17:54:08.320Z,27.94
2022-09-05T17:56:40.118Z,27.82
2022-09-05T17:59:12.917Z,27.68
2022-09-05T18:02:02.823Z,27.58
2022-09-05T18:04:50.434Z,27.52
2022-09-05T18:07:26.469Z,27.42
2022-09-05T18:10:12.736Z,27.37
2022-09-05T18:13:12.599Z,27.37
2022-09-05T18:15:36.201Z,27.41
2022-09-05T18:18:38.417Z,27.32
2022-09-05T18:21:21.693Z,27.20
2022-09-05T18:24:03.247Z,26.99
2022-09-05T18:26:40.358Z,26.89
2022-09-05T18:29:21.178Z,26.79
2022-09-05T18:32:11.149Z,26.74
2022-09-05T18:34:38.078Z,26.71
2022-09-05T18:37:37.656Z,26.60
2022-09-05T18:40:07.460Z,26.52
2022-09-05T18:42:39.677Z,26.41
2022-09-05T18:45:17.818Z,26.36
2022-09-05T18:47:59.597Z,26.28
2022-09-05T18:50:32.458Z,26.22
2022-09-05T18:53:06.366Z,26.11
2022-09-05T18:56:13.519Z,26.08
2022-09-05T18:59:09.640Z,26.02
2022-09-05T19:01:58.621Z,25.96
2022-09-05T19:04:38.944Z,25.90
2022-09-05T19:07:10.724Z,25.83
2022-09-05T19:09:56.775Z,25.79
2022-09-05T19:12:32.146Z,25.75
2022-09-05T19:15:30.901Z,25.71
2022-09-05T19:18:22.807Z,25.67
2022-09-05T19:21:12.098Z,25.62
2022-09-05T19:23:52.993Z,25.64
2022-09-05T19:26:20.779Z,25.61
2022-09-05T19:34:27.163Z,25.58
2022-09-05T19:36:46.280Z,25.52
2022-09-05T19:37:22.794Z,25.49
2022-09-05T19:37:38.610Z,25.44
2022-09-05T19:47:28.040Z,25.40
2022-09-05T19:47:34.814Z,25.37
2022-09-05T19:47:36.392Z,25.36
2022-09-05T19:48:37.296Z,25.33
2022-09-05T19:51:16.962Z,25.33
2022-09-05T19:53:55.216Z,25.29
2022-09-05T19:56:40.627Z,25.24
2022-09-05T19:59:34.186Z,25.24
2022-09-05T20:02:02.496Z,25.21
2022-09-05T20:04:37.064Z,25.16
2022-09-05T20:07:16.344Z,25.20
2022-09-05T20:09:46.998Z,25.17
2022-09-05T20:12:25.190Z,25.12
2022-09-05T20:14:52.132Z,25.16
2022-09-05T20:17:34.328Z,25.20
2022-09-05T20:20:11.138Z,25.12
2022-09-05T20:22:47.457Z,25.10
2022-09-05T20:25:48.729Z,25.10
2022-09-05T20:28:20.850Z,25.09
2022-09-05T20:30:54.638Z,25.06
2022-09-05T20:33:27.046Z,25.21
2022-09-05T20:42:57.812Z,25.21
2022-09-05T20:43:24.926Z,25.07
2022-09-05T20:43:35.565Z,25.09
2022-09-05T20:44:41.678Z,25.01
2022-09-05T20:54:05.337Z,25.06
2022-09-05T20:54:13.959Z,25.02
2022-09-05T20:54:14.295Z,25.03
2022-09-05T20:56:02.113Z,25.04
2022-09-05T20:58:31.357Z,25.05
2022-09-05T21:01:22.925Z,25.09
2022-09-05T21:04:04.998Z,25.12
2022-09-05T21:06:36.897Z,25.13
2022-09-05T21:09:14.935Z,25.14
2022-09-05T21:11:42.790Z,25.13
2022-09-05T21:14:10.618Z,25.11
2022-09-05T21:16:49.433Z,25.14
2022-09-05T21:19:29.494Z,25.13
2022-09-05T21:22:15.135Z,24.76
2022-09-05T21:24:42.409Z,24.63
2022-09-05T21:27:24.075Z,24.57
2022-09-05T21:29:59.309Z,24.57
2022-09-05T21:32:27.971Z,24.56
2022-09-05T21:35:33.684Z,24.78
2022-09-05T21:37:53.350Z,24.58
2022-09-05T21:40:21.128Z,24.57
2022-09-05T21:47:33.878Z,24.58
2022-09-05T21:47:48.294Z,24.63
2022-09-05T21:48:24.356Z,24.60
2022-09-05T21:50:53.342Z,24.55
2022-09-05T21:57:30.248Z,24.55
2022-09-05T21:59:24.479Z,24.59
2022-09-05T21:59:33.207Z,24.56
2022-09-05T22:01:56.664Z,24.59
2022-09-05T22:04:23.630Z,24.59
2022-09-05T22:06:52.989Z,24.62
2022-09-05T22:09:22.901Z,24.60
2022-09-05T22:11:52.710Z,24.62
2022-09-05T22:14:21.508Z,24.63
2022-09-05T22:16:50.726Z,24.60
2022-09-05T22:19:36.758Z,24.60
2022-09-05T22:22:15.981Z,24.62
2022-09-05T22:24:54.508Z,24.61
2022-09-05T22:27:22.299Z,24.59
2022-09-05T22:29:51.106Z,24.58
2022-09-05T22:32:35.159Z,24.57
2022-09-05T22:35:15.770Z,24.56
2022-09-05T22:37:59.341Z,24.58
2022-09-05T22:40:28.567Z,24.52
2022-09-05T22:43:00.730Z,24.52
2022-09-05T22:45:29.162Z,24.50
2022-09-05T22:47:56.152Z,24.49
2022-09-05T22:50:23.570Z,24.47
2022-09-05T22:52:50.792Z,24.44
2022-09-05T22:55:18.206Z,24.45
2022-09-05T22:57:45.096Z,24.40
2022-09-05T23:00:12.220Z,24.38
2022-09-05T23:02:39.117Z,24.38
2022-09-05T23:05:06.824Z,24.36
2022-09-05T23:07:34.225Z,24.34
2022-09-05T23:10:01.178Z,24.34
2022-09-05T23:12:28.074Z,24.30
2022-09-05T23:14:55.069Z,24.27
2022-09-05T23:17:21.991Z,24.24
2022-09-05T23:19:48.893Z,24.23
2022-09-05T23:22:16.014Z,24.20
2022-09-05T23:24:42.924Z,24.17
2022-09-05T23:27:09.806Z,24.11
2022-09-05T23:29:37.186Z,24.07
2022-09-05T23:32:04.125Z,24.03
2022-09-05T23:34:33.070Z,24.00
2022-09-05T23:36:59.998Z,23.99
2022-09-05T23:39:26.958Z,23.93
2022-09-05T23:41:53.934Z,23.88
2022-09-05T23:44:20.815Z,23.85
2022-09-05T23:46:47.710Z,23.81
2022-09-05T23:49:14.587Z,23.78
2022-09-05T23:51:41.481Z,23.76
2022-09-05T23:54:08.367Z,23.73
2022-09-05T23:56:35.326Z,23.71
2022-09-05T23:59:02.210Z,23.65
